Time;durP1;ratioP1;P1;durP2;ratioP2;P2;SDS_P1;SDS_P2;PMS_P1;PMS_P2;Temp;Humidity;BMP_temperature;BMP_pressure;BME280_temperature;BME280_humidity;BME280_pressure;Samples;Min_cycle;Max_cycle;Signal;HPM_P1;HPM_P2
2022/05/10 00:01:42;;;;;;;;;;;;;;;24.73;45.35;94773.69;5032208;28;9617;-56
2022/05/10 00:04:10;;;;;;;;;;;;;;;24.71;45.16;94769.41;5015092;28;9073;-56
2022/05/10 00:06:46;;;;;;;;;;;;;;;24.73;44.92;94774.41;5006895;28;8891;-56
2022/05/10 00:09:17;;;;;;;;;;;;;;;24.73;44.98;94768.19;5032308;28;7112;-56
2022/05/10 00:11:51;;;;;;;;;;;;;;;24.73;44.92;94768.91;5031667;28;7221;-56
2022/05/10 00:14:19;;;;;;;;;;;;;;;24.73;45.25;94772.44;5019150;28;7260;-56
2022/05/10 00:16:57;;;;;;;;;;;;;;;24.71;44.93;94766.66;5027447;28;9090;-56
2022/05/10 00:19:30;;;;;;;;;;;;;;;24.73;44.85;94765.44;5023184;28;9143;-56
2022/05/10 00:21:57;;;;;;;;;;;;;;;24.71;45.14;94774.94;5000428;28;7276;-56
2022/05/10 00:24:23;;;;;;;;;;;;;;;24.68;44.63;94759.41;5025556;28;9098;-56
2022/05/10 00:26:52;;;;;;;;;;;;;;;24.69;45.04;94766.41;5015371;28;7281;-56
2022/05/10 00:29:19;;;;;;;;;;;;;;;24.70;44.88;94767.19;5016041;28;9034;-56
2022/05/10 00:31:45;;;;;;;;;;;;;;;24.69;44.94;94769.16;5012925;28;7080;-56
2022/05/10 00:34:16;;;;;;;;;;;;;;;24.68;45.09;94770.41;5013315;28;7028;-56
2022/05/10 00:36:48;;;;;;;;;;;;;;;24.67;45.17;94774.41;5011548;28;7513;-56
2022/05/10 00:39:27;;;;;;;;;;;;;;;24.67;44.80;94768.91;5021173;28;7534;-56
2022/05/10 00:42:04;;;;;;;;;;;;;;;24.68;44.51;94772.44;5014779;28;7367;-56
2022/05/10 00:45:15;;;;;;;;;;;;;;;24.66;44.80;94775.66;5015867;28;7741;-56
2022/05/10 00:47:48;;;;;;;;;;;;;;;24.67;45.13;94779.91;4952586;28;8908;-56
2022/05/10 00:50:21;;;;;;;;;;;;;;;24.67;44.80;94774.41;4944686;28;7002;-56
2022/05/10 00:52:56;;;;;;;;;;;;;;;24.64;45.07;94780.16;4946295;28;9104;-56
2022/05/10 00:55:33;;;;;;;;;;;;;;;24.63;44.95;94779.41;4941773;28;9205;-56
2022/05/10 00:58:31;;;;;;;;;;;;;;;24.63;45.13;94778.66;4936431;28;7266;-56
2022/05/10 01:01:02;;;;;;;;;;;;;;;24.61;45.07;94778.41;4952292;28;9007;-56
2022/05/10 01:03:36;;;;;;;;;;;;;;;24.63;44.91;94784.91;4929514;28;8808;-56
2022/05/10 01:06:11;;;;;;;;;;;;;;;24.63;45.29;94787.66;4936150;28;7302;-56
2022/05/10 01:08:57;;;;;;;;;;;;;;;24.64;45.13;94785.66;4934500;28;9097;-56
2022/05/10 01:11:42;;;;;;;;;;;;;;;24.63;44.84;94779.41;4942976;28;8979;-56
2022/05/10 01:14:29;;;;;;;;;;;;;;;24.64;44.80;94782.91;4949698;28;7231;-56
2022/05/10 01:16:58;;;;;;;;;;;;;;;24.61;45.32;94779.16;4931220;28;7287;-56
2022/05/10 01:19:24;;;;;;;;;;;;;;;24.61;44.89;94787.41;4939503;28;7231;-56
2022/05/10 01:22:15;;;;;;;;;;;;;;;24.62;44.99;94782.66;4998546;28;8739;-56
2022/05/10 01:27:51;;;;;;;;;;;;;;;24.62;44.51;94782.66;5025673;28;9020;-56
2022/05/10 01:30:21;;;;;;;;;;;;;;;24.59;44.74;94784.41;5030537;28;7076;-56
2022/05/10 01:36:24;;;;;;;;;;;;;;;24.61;44.89;94790.16;5025823;28;8601;-56
2022/05/10 01:39:08;;;;;;;;;;;;;;;24.60;44.96;94785.13;5020361;28;7776;-56
2022/05/10 01:41:38;;;;;;;;;;;;;;;24.61;45.06;94786.66;5029682;28;9456;-56
2022/05/10 01:44:30;;;;;;;;;;;;;;;24.59;44.79;94784.41;4998329;28;9266;-56
2022/05/10 01:47:15;;;;;;;;;;;;;;;24.56;44.95;94779.88;5024036;28;7547;-56
2022/05/10 01:50:20;;;;;;;;;;;;;;;24.54;45.36;94787.88;5011415;28;9849;-56
2022/05/10 01:53:05;;;;;;;;;;;;;;;24.57;44.81;94786.13;4961857;28;9086;-57
2022/05/10 01:56:13;;;;;;;;;;;;;;;24.57;45.04;94792.41;4970445;28;9212;-56
2022/05/10 01:58:41;;;;;;;;;;;;;;;24.57;45.05;94780.63;4968407;28;9081;-56
2022/05/10 02:01:38;;;;;;;;;;;;;;;24.56;44.81;94774.38;4951643;28;7214;-56
2022/05/10 02:04:16;;;;;;;;;;;;;;;24.57;44.97;94778.66;4954553;28;9647;-55
2022/05/10 02:06:54;;;;;;;;;;;;;;;24.55;44.66;94772.13;4970058;28;8572;-56
2022/05/10 02:09:30;;;;;;;;;;;;;;;24.53;44.66;94777.38;4954746;28;9045;-56
2022/05/10 02:12:03;;;;;;;;;;;;;;;24.55;44.70;94780.38;4964271;28;8821;-56
2022/05/10 02:14:50;;;;;;;;;;;;;;;24.56;44.76;94779.13;4952963;28;7346;-56
2022/05/10 02:17:42;;;;;;;;;;;;;;;24.55;44.74;94772.13;4970074;28;8972;-57
2022/05/10 02:20:28;;;;;;;;;;;;;;;24.55;44.73;94781.13;4964804;28;7560;-56
2022/05/10 02:23:30;;;;;;;;;;;;;;;24.55;44.83;94774.88;4963758;28;7024;-56
2022/05/10 02:26:32;;;;;;;;;;;;;;;24.53;44.84;94772.59;4912912;29;7042;-56
2022/05/10 02:29:26;;;;;;;;;;;;;;;24.54;44.65;94771.38;4921151;28;8996;-56
2022/05/10 02:35:16;;;;;;;;;;;;;;;24.53;44.64;94758.13;4955171;28;6900;-56
2022/05/10 02:37:54;;;;;;;;;;;;;;;24.51;44.98;94758.59;4954369;28;7896;-56
2022/05/10 02:40:34;;;;;;;;;;;;;;;24.52;44.71;94751.09;4958871;28;8873;-56
2022/05/10 02:43:03;;;;;;;;;;;;;;;24.50;45.02;94751.63;4949479;28;9207;-56
2022/05/10 02:45:40;;;;;;;;;;;;;;;24.50;45.19;94748.84;4961380;28;7171;-56
2022/05/10 02:48:13;;;;;;;;;;;;;;;24.48;44.88;94745.84;4961221;28;7535;-56
2022/05/10 02:51:08;;;;;;;;;;;;;;;24.50;45.01;94746.13;4942624;28;7260;-56
2022/05/10 02:53:35;;;;;;;;;;;;;;;24.49;44.40;94747.34;4930822;29;9437;-56
2022/05/10 02:56:16;;;;;;;;;;;;;;;24.50;44.73;94745.34;4928917;29;7339;-56
2022/05/10 02:58:45;;;;;;;;;;;;;;;24.48;45.15;94739.59;4926986;29;7285;-56
2022/05/10 03:01:33;;;;;;;;;;;;;;;24.49;44.55;94730.13;4946207;28;7000;-56
2022/05/10 03:04:03;;;;;;;;;;;;;;;24.45;44.58;94735.84;4978468;28;7592;-56
2022/05/10 03:06:29;;;;;;;;;;;;;;;24.45;44.98;94729.59;4965340;28;7072;-56
2022/05/10 03:08:58;;;;;;;;;;;;;;;24.44;44.80;94728.84;4984351;28;7405;-56
2022/05/10 03:11:25;;;;;;;;;;;;;;;24.43;44.83;94721.84;4981345;28;7302;-56
2022/05/10 03:13:52;;;;;;;;;;;;;;;24.43;45.04;94724.59;4967043;28;6997;-56
2022/05/10 03:16:24;;;;;;;;;;;;;;;24.44;44.79;94725.34;4982953;28;7571;-56
2022/05/10 03:18:51;;;;;;;;;;;;;;;24.44;45.20;94730.84;4980480;28;7526;-56
2022/05/10 03:21:21;;;;;;;;;;;;;;;24.44;45.02;94728.09;4979224;28;7245;-56
2022/05/10 03:24:00;;;;;;;;;;;;;;;24.44;44.90;94734.34;4972185;28;7841;-56
2022/05/10 03:26:55;;;;;;;;;;;;;;;24.45;44.77;94724.09;4969707;28;9610;-56
2022/05/10 03:29:36;;;;;;;;;;;;;;;24.43;44.87;94729.31;4924318;29;7257;-56
2022/05/10 03:32:11;;;;;;;;;;;;;;;24.44;44.86;94725.34;4944060;28;7240;-56
2022/05/10 03:34:55;;;;;;;;;;;;;;;24.44;44.82;94728.09;4937667;29;7315;-56
2022/05/10 03:37:28;;;;;;;;;;;;;;;24.44;44.62;94730.84;4927223;28;9689;-56
2022/05/10 03:39:55;;;;;;;;;;;;;;;24.43;44.89;94727.34;4950372;28;8952;-56
2022/05/10 03:42:30;;;;;;;;;;;;;;;24.41;45.18;94740.06;4930797;29;9027;-56
2022/05/10 03:44:56;;;;;;;;;;;;;;;24.42;44.91;94738.84;4950250;28;9153;-56
2022/05/10 03:47:26;;;;;;;;;;;;;;;24.40;45.38;94742.06;4940409;29;7350;-56
2022/05/10 03:50:08;;;;;;;;;;;;;;;24.39;44.93;94737.81;4949614;28;7336;-57
2022/05/10 03:52:38;;;;;;;;;;;;;;;24.41;45.20;94734.56;4944872;28;7236;-56
2022/05/10 03:55:06;;;;;;;;;;;;;;;24.39;45.15;94737.81;4938071;28;9005;-56
2022/05/10 03:58:03;;;;;;;;;;;;;;;24.39;44.96;94735.06;4937399;28;9272;-56
2022/05/10 04:00:29;;;;;;;;;;;;;;;24.38;44.90;94736.31;4893204;29;7433;-55
2022/05/10 04:02:57;;;;;;;;;;;;;;;24.39;45.14;94740.56;4913487;29;7214;-56
2022/05/10 04:05:27;;;;;;;;;;;;;;;24.38;45.11;94739.06;4918983;28;7648;-56
2022/05/10 04:07:53;;;;;;;;;;;;;;;24.38;44.85;94744.56;4951604;28;9404;-56
2022/05/10 04:10:23;;;;;;;;;;;;;;;24.38;44.87;94749.31;4964654;28;7246;-56
2022/05/10 04:12:51;;;;;;;;;;;;;;;24.39;44.61;94742.56;4960934;28;9146;-56
2022/05/10 04:15:19;;;;;;;;;;;;;;;24.38;45.19;94747.31;4964516;28;7263;-56
2022/05/10 04:17:45;;;;;;;;;;;;;;;24.38;45.07;94746.56;4962970;28;9127;-56
2022/05/10 04:20:13;;;;;;;;;;;;;;;24.37;45.03;94739.56;4977606;28;9525;-56
2022/05/10 04:22:39;;;;;;;;;;;;;;;24.38;44.42;94739.06;4938961;28;9592;-56
2022/05/10 04:25:09;;;;;;;;;;;;;;;24.35;44.52;94739.31;4950232;28;7344;-56
2022/05/10 04:27:35;;;;;;;;;;;;;;;24.33;44.92;94745.31;4964623;28;9443;-56
2022/05/10 04:30:01;;;;;;;;;;;;;;;24.34;44.47;94741.28;4968309;28;9039;-56
2022/05/10 04:32:30;;;;;;;;;;;;;;;24.32;44.55;94738.28;4945660;28;8838;-56
2022/05/10 04:35:02;;;;;;;;;;;;;;;24.35;44.84;94744.81;4958192;28;7162;-55
2022/05/10 04:37:28;;;;;;;;;;;;;;;24.36;44.77;94743.56;4999521;28;9180;-56
2022/05/10 04:42:42;;;;;;;;;;;;;;;24.33;44.50;94750.81;5026892;28;7399;-56
2022/05/10 04:45:08;;;;;;;;;;;;;;;24.31;44.38;94745.03;5019475;28;8874;-55
2022/05/10 04:47:34;;;;;;;;;;;;;;;24.32;44.61;94743.78;5008497;28;9206;-56
2022/05/10 04:50:02;;;;;;;;;;;;;;;24.32;44.29;94749.28;5007090;28;9170;-56
2022/05/10 04:52:28;;;;;;;;;;;;;;;24.30;44.51;94756.50;5025699;28;9343;-56
2022/05/10 04:54:54;;;;;;;;;;;;;;;24.30;44.31;94751.78;5010554;28;7686;-56
2022/05/10 04:57:22;;;;;;;;;;;;;;;24.30;44.27;94746.28;5010326;28;6856;-56
2022/05/10 04:59:50;;;;;;;;;;;;;;;24.31;44.13;94747.03;5024941;28;9117;-56
2022/05/10 05:02:16;;;;;;;;;;;;;;;24.30;43.67;94760.03;5006466;28;7056;-56
2022/05/10 05:04:42;;;;;;;;;;;;;;;24.27;44.18;94755.50;5029510;28;9449;-56
2022/05/10 05:07:10;;;;;;;;;;;;;;;24.29;44.17;94755.78;5010370;28;9029;-56
2022/05/10 05:09:36;;;;;;;;;;;;;;;24.30;44.13;94762.00;5016443;28;9118;-56
2022/05/10 05:12:17;;;;;;;;;;;;;;;24.29;44.49;94764.03;5018966;28;9177;-56
2022/05/10 05:14:47;;;;;;;;;;;;;;;24.27;43.95;94763.75;4995899;28;9126;-55
2022/05/10 05:17:16;;;;;;;;;;;;;;;24.29;44.31;94766.03;5015838;28;9055;-56
2022/05/10 05:19:44;;;;;;;;;;;;;;;24.28;44.30;94768.00;5028240;28;9065;-55
2022/05/10 05:22:21;;;;;;;;;;;;;;;24.29;44.09;94766.78;5025638;28;7315;-55
2022/05/10 05:25:05;;;;;;;;;;;;;;;24.26;43.91;94773.25;5010684;28;9680;-55
2022/05/10 05:27:35;;;;;;;;;;;;;;;24.26;43.83;94770.50;5010320;28;9474;-56
2022/05/10 05:30:03;;;;;;;;;;;;;;;24.25;44.16;94771.75;5026053;28;9397;-55
2022/05/10 05:32:33;;;;;;;;;;;;;;;24.27;44.10;94774.00;5012530;28;7600;-55
2022/05/10 05:35:08;;;;;;;;;;;;;;;24.26;44.08;94770.50;5030734;28;9430;-56
2022/05/10 05:37:34;;;;;;;;;;;;;;;24.26;44.48;94767.75;5016537;28;9015;-56
2022/05/10 05:40:24;;;;;;;;;;;;;;;24.26;44.12;94767.75;5018181;28;7138;-56
2022/05/10 05:43:09;;;;;;;;;;;;;;;24.24;44.43;94764.75;5025958;28;8788;-56
2022/05/10 05:45:37;;;;;;;;;;;;;;;24.23;44.67;94768.00;5021524;28;7258;-56
2022/05/10 05:48:19;;;;;;;;;;;;;;;24.21;44.16;94762.97;5014373;28;7653;-56
2022/05/10 05:50:47;;;;;;;;;;;;;;;24.22;44.05;94767.25;5009788;28;7321;-56
2022/05/10 05:53:23;;;;;;;;;;;;;;;;;;5024344;28;9081;-56
2022/05/10 05:55:53;;;;;;;;;;;;;;;24.32;44.23;94774.03;5018468;28;7357;-55
2022/05/10 05:58:20;;;;;;;;;;;;;;;24.30;43.90;94778.50;5016544;28;9078;-56
2022/05/10 06:00:46;;;;;;;;;;;;;;;24.27;44.19;94768.50;5012092;28;9097;-56
2022/05/10 06:03:12;;;;;;;;;;;;;;;24.26;44.22;94769.75;5010534;28;8746;-56
2022/05/10 06:05:38;;;;;;;;;;;;;;;24.26;44.44;94773.25;5014579;28;8684;-55
2022/05/10 06:08:06;;;;;;;;;;;;;;;24.26;44.37;94773.25;5033461;28;8936;-55
2022/05/10 06:10:32;;;;;;;;;;;;;;;24.27;44.60;94772.00;5028891;28;7335;-55
2022/05/10 06:13:04;;;;;;;;;;;;;;;24.27;44.29;94777.50;5013032;28;9358;-56
2022/05/10 06:15:39;;;;;;;;;;;;;;;24.30;44.36;94778.50;5002154;28;7085;-55
2022/05/10 06:18:05;;;;;;;;;;;;;;;24.29;44.41;94769.53;5020323;28;8949;-56
2022/05/10 06:20:31;;;;;;;;;;;;;;;24.31;44.13;94780.78;5022338;28;7022;-56
2022/05/10 06:23:00;;;;;;;;;;;;;;;24.31;44.80;94783.53;5010567;28;6992;-56
2022/05/10 06:25:37;;;;;;;;;;;;;;;24.30;44.56;94779.25;5011474;28;8752;-56
2022/05/10 06:28:05;;;;;;;;;;;;;;;24.26;44.60;94776.00;5025649;28;9271;-56
2022/05/10 06:30:43;;;;;;;;;;;;;;;24.30;44.43;94779.25;5013847;28;9687;-56
2022/05/10 06:33:19;;;;;;;;;;;;;;;24.30;44.70;94779.25;5006198;28;9108;-55
2022/05/10 06:35:47;;;;;;;;;;;;;;;24.30;44.43;94779.25;5026096;28;7046;-56
2022/05/10 06:38:26;;;;;;;;;;;;;;;24.31;44.39;94780.78;5015418;28;7971;-56
2022/05/10 06:40:52;;;;;;;;;;;;;;;24.30;44.75;94784.75;5000748;28;7290;-56
2022/05/10 06:43:22;;;;;;;;;;;;;;;24.29;44.74;94783.28;5033680;28;6946;-56
2022/05/10 06:45:51;;;;;;;;;;;;;;;24.31;44.39;94789.03;5022148;28;7029;-56
2022/05/10 06:48:26;;;;;;;;;;;;;;;24.33;43.95;94783.03;5028637;28;9118;-56
2022/05/10 06:50:53;;;;;;;;;;;;;;;24.28;43.53;94781.75;5029322;28;7267;-56
2022/05/10 06:53:19;;;;;;;;;;;;;;;24.27;43.57;94787.75;5021966;28;6964;-56
2022/05/10 06:55:45;;;;;;;;;;;;;;;24.22;43.95;94783.72;5007095;28;9026;-56
2022/05/10 06:58:13;;;;;;;;;;;;;;;24.25;43.68;94787.50;5004526;28;9091;-56
2022/05/10 07:00:41;;;;;;;;;;;;;;;24.22;43.67;94782.97;5016344;28;8791;-56
2022/05/10 07:03:10;;;;;;;;;;;;;;;24.21;43.20;94782.22;5031203;28;9136;-56
2022/05/10 07:05:39;;;;;;;;;;;;;;;24.23;43.28;94795.47;5029952;28;9089;-57
2022/05/10 07:08:05;;;;;;;;;;;;;;;24.22;43.57;94786.47;5010675;28;9342;-56
2022/05/10 07:10:33;;;;;;;;;;;;;;;24.25;43.44;94793.72;5019769;28;7661;-56
2022/05/10 07:12:59;;;;;;;;;;;;;;;24.27;43.95;94791.22;5021498;28;7089;-56
2022/05/10 07:15:26;;;;;;;;;;;;;;;24.28;43.87;94792.75;5016565;28;7516;-56
2022/05/10 07:17:52;;;;;;;;;;;;;;;24.28;43.59;94798.25;5021915;28;8913;-56
2022/05/10 07:20:20;;;;;;;;;;;;;;;24.29;43.48;94799.00;4997335;28;7510;-56
2022/05/10 07:22:55;;;;;;;;;;;;;;;24.31;42.98;94797.28;5010181;28;8453;-56
2022/05/10 07:25:25;;;;;;;;;;;;;;;24.31;43.43;94797.28;5019772;28;7220;-56
2022/05/10 07:27:57;;;;;;;;;;;;;;;24.30;43.45;94784.00;5027923;28;7268;-56
2022/05/10 07:30:32;;;;;;;;;;;;;;;24.32;43.37;94798.75;5029835;28;7197;-56
2022/05/10 07:32:59;;;;;;;;;;;;;;;24.31;43.58;94791.03;5028028;28;8850;-56
2022/05/10 07:38:19;;;;;;;;;;;;;;;24.31;43.29;94797.28;5026797;28;6859;-56
2022/05/10 07:40:48;;;;;;;;;;;;;;;24.30;43.31;94797.75;5014897;28;9591;-56
2022/05/10 07:43:23;;;;;;;;;;;;;;;24.32;43.07;94793.25;5021958;28;8155;-56
2022/05/10 07:45:51;;;;;;;;;;;;;;;24.35;43.56;94794.28;5023437;28;7237;-57
2022/05/10 07:48:49;;;;;;;;;;;;;;;24.34;43.28;94790.78;5028325;28;6855;-56
2022/05/10 07:51:24;;;;;;;;;;;;;;;24.33;43.84;94794.78;4991320;28;6975;-56
2022/05/10 07:53:52;;;;;;;;;;;;;;;24.34;43.26;94799.03;5006641;28;9385;-56
2022/05/10 07:56:20;;;;;;;;;;;;;;;24.33;43.43;94800.28;4988738;28;8871;-56
2022/05/10 07:58:47;;;;;;;;;;;;;;;24.34;43.48;94801.78;4989582;28;9055;-56
2022/05/10 08:01:16;;;;;;;;;;;;;;;24.35;43.36;94797.78;4984931;28;7071;-56
2022/05/10 08:03:43;;;;;;;;;;;;;;;24.36;43.40;94798.56;5008318;28;8183;-56
2022/05/10 08:06:09;;;;;;;;;;;;;;;24.35;43.27;94802.53;4992442;28;7080;-56
2022/05/10 08:08:37;;;;;;;;;;;;;;;24.34;43.39;94795.50;5007570;28;7330;-56
2022/05/10 08:11:04;;;;;;;;;;;;;;;24.35;43.12;94797.03;4992118;28;7712;-57
2022/05/10 08:13:33;;;;;;;;;;;;;;;24.36;43.20;94798.56;4992233;28;9114;-56
2022/05/10 08:16:04;;;;;;;;;;;;;;;24.37;43.55;94798.03;5007902;28;9342;-57
2022/05/10 08:18:30;;;;;;;;;;;;;;;24.39;43.67;94803.81;5009141;28;7410;-56
2022/05/10 08:20:59;;;;;;;;;;;;;;;24.38;43.58;94804.31;4992666;28;9191;-56
2022/05/10 08:23:29;;;;;;;;;;;;;;;24.39;43.73;94801.06;5006279;28;8828;-56
2022/05/10 08:26:11;;;;;;;;;;;;;;;24.39;43.76;94803.81;4992921;28;6867;-57
2022/05/10 08:28:37;;;;;;;;;;;;;;;24.40;43.23;94799.78;5007633;28;8592;-56
2022/05/10 08:31:06;;;;;;;;;;;;;;;24.42;43.15;94802.06;5011816;28;9322;-57
2022/05/10 08:33:38;;;;;;;;;;;;;;;24.41;43.33;94801.31;5007003;28;9355;-57
2022/05/10 08:36:06;;;;;;;;;;;;;;;24.45;43.41;94801.81;5011134;28;6860;-56
2022/05/10 08:38:35;;;;;;;;;;;;;;;24.45;43.14;94807.31;5010832;28;7062;-57
2022/05/10 08:41:15;;;;;;;;;;;;;;;24.44;43.19;94800.34;5011737;28;7019;-57
2022/05/10 08:43:54;;;;;;;;;;;;;;;24.45;43.53;94793.56;5000092;28;9345;-57
2022/05/10 08:46:32;;;;;;;;;;;;;;;24.45;43.26;94790.81;5012643;28;6864;-57
2022/05/10 08:49:03;;;;;;;;;;;;;;;24.46;43.33;94795.09;5012412;28;8976;-57
2022/05/10 08:51:31;;;;;;;;;;;;;;;24.46;43.03;94791.59;5029434;28;7963;-56
2022/05/10 08:53:58;;;;;;;;;;;;;;;24.47;43.15;94787.56;5024165;28;7288;-57
2022/05/10 08:56:46;;;;;;;;;;;;;;;24.46;43.01;94789.59;5025131;28;9429;-57
2022/05/10 09:00:02;;;;;;;;;;;;;;;24.48;43.05;94794.59;5024025;28;7234;-56
2022/05/10 09:02:45;;;;;;;;;;;;;;;24.46;43.04;94795.09;4997819;28;8663;-56
2022/05/10 09:05:28;;;;;;;;;;;;;;;24.46;43.39;94794.34;4995070;28;7036;-56
2022/05/10 09:07:54;;;;;;;;;;;;;;;24.46;43.05;94786.84;4989931;28;7294;-56
2022/05/10 09:10:41;;;;;;;;;;;;;;;24.46;42.87;94797.84;4989329;28;9207;-56
2022/05/10 09:13:15;;;;;;;;;;;;;;;24.46;43.28;94786.84;5005940;28;8927;-57
2022/05/10 09:15:54;;;;;;;;;;;;;;;24.46;43.44;94795.09;5002979;28;7223;-57
2022/05/10 09:18:21;;;;;;;;;;;;;;;24.46;43.33;94791.59;5001367;28;6876;-57
2022/05/10 09:21:08;;;;;;;;;;;;;;;24.48;43.23;94794.59;4989808;28;9132;-55
2022/05/10 09:23:56;;;;;;;;;;;;;;;24.48;43.79;94787.09;4991879;28;7124;-56
2022/05/10 09:26:24;;;;;;;;;;;;;;;24.49;43.15;94785.13;4988755;28;7047;-56
2022/05/10 09:29:15;;;;;;;;;;;;;;;24.51;43.38;94788.13;5004583;28;6852;-56
2022/05/10 09:34:48;;;;;;;;;;;;;;;24.52;43.20;94773.88;5005092;28;7341;-56
2022/05/10 09:37:16;;;;;;;;;;;;;;;24.54;43.35;94774.13;5023773;28;9177;-55
2022/05/10 09:40:00;;;;;;;;;;;;;;;24.53;43.17;94786.34;5008687;28;8605;-55
2022/05/10 09:42:34;;;;;;;;;;;;;;;24.54;43.51;94778.84;5027263;28;9344;-56
2022/05/10 09:45:14;;;;;;;;;;;;;;;24.52;43.53;94779.38;5007683;28;7070;-56
2022/05/10 09:47:56;;;;;;;;;;;;;;;24.57;43.41;94784.16;5020298;28;7086;-56
2022/05/10 09:50:29;;;;;;;;;;;;;;;24.58;43.83;94773.88;5001047;28;6863;-57
2022/05/10 09:53:23;;;;;;;;;;;;;;;24.59;43.58;94778.13;5010222;28;7285;-56
2022/05/10 09:56:02;;;;;;;;;;;;;;;24.59;43.63;94770.66;5009501;28;7008;-58
2022/05/10 09:58:36;;;;;;;;;;;;;;;24.60;43.60;94780.38;5018129;28;6860;-56
2022/05/10 10:01:10;;;;;;;;;;;;;;;24.61;43.75;94783.91;5006621;28;8584;-60
2022/05/10 10:03:41;;;;;;;;;;;;;;;24.63;42.84;94781.41;5003113;28;7055;-57
2022/05/10 10:06:22;;;;;;;;;;;;;;;24.63;43.52;94771.16;5024406;28;7138;-56
2022/05/10 10:08:57;;;;;;;;;;;;;;;24.64;43.45;94771.91;4994572;28;9064;-56
2022/05/10 10:11:26;;;;;;;;;;;;;;;24.65;43.03;94770.66;5000720;28;9280;-56
2022/05/10 10:14:06;;;;;;;;;;;;;;;24.66;43.49;94767.41;5001275;28;9429;-55
2022/05/10 10:16:55;;;;;;;;;;;;;;;24.66;43.58;94767.41;5009957;28;8627;-56
2022/05/10 10:19:31;;;;;;;;;;;;;;;24.68;43.05;94764.16;5010424;28;9334;-56
2022/05/10 10:22:20;;;;;;;;;;;;;;;24.68;43.62;94764.91;5011613;28;7554;-57
2022/05/10 10:25:24;;;;;;;;;;;;;;;24.68;43.08;94762.16;5009810;28;9097;-56
2022/05/10 10:28:09;;;;;;;;;;;;;;;24.67;43.62;94763.41;5031531;28;7024;-56
2022/05/10 10:31:16;;;;;;;;;;;;;;;24.70;43.23;94761.69;5022847;28;9107;-56
2022/05/10 10:34:19;;;;;;;;;;;;;;;24.70;43.21;94762.44;4973505;28;9186;-56
2022/05/10 10:36:48;;;;;;;;;;;;;;;24.67;43.75;94752.41;4978456;28;6936;-56
2022/05/10 10:39:51;;;;;;;;;;;;;;;24.69;43.66;94752.66;4988452;28;7176;-57
2022/05/10 10:42:39;;;;;;;;;;;;;;;24.71;43.27;94750.16;4977482;28;9182;-57
2022/05/10 10:45:14;;;;;;;;;;;;;;;24.71;43.78;94743.91;4985342;28;7210;-57
2022/05/10 10:47:50;;;;;;;;;;;;;;;24.74;43.24;94745.69;4980418;28;9190;-57
2022/05/10 10:50:28;;;;;;;;;;;;;;;24.71;43.30;94747.41;4977162;28;7242;-57
2022/05/10 10:53:00;;;;;;;;;;;;;;;24.75;43.37;94740.97;4968586;28;7227;-57
2022/05/10 10:55:54;;;;;;;;;;;;;;;24.73;43.38;94739.41;4968488;28;7303;-56
2022/05/10 10:58:52;;;;;;;;;;;;;;;24.77;43.53;94743.97;4987290;28;9148;-56
2022/05/10 11:01:38;;;;;;;;;;;;;;;24.80;43.30;94737.47;4909384;29;8997;-56
2022/05/10 11:04:20;;;;;;;;;;;;;;;24.81;43.42;94738.97;4909894;29;9416;-56
2022/05/10 11:06:54;;;;;;;;;;;;;;;24.82;43.12;94729.44;4899369;28;7343;-56
2022/05/10 11:09:31;;;;;;;;;;;;;;;24.84;43.32;94738.00;4940571;28;9233;-57
2022/05/10 11:12:37;;;;;;;;;;;;;;;24.83;44.50;94734.47;4944907;28;8630;-56
2022/05/10 11:15:17;;;;;;;;;;;;;;;24.84;43.73;94729.72;4933380;28;7401;-56
2022/05/10 11:18:36;;;;;;;;;;;;;;;24.84;44.35;94722.22;4934603;28;9454;-56
2022/05/10 11:21:24;;;;;;;;;;;;;;;24.88;44.46;94727.47;4944727;28;9432;-56
2022/05/10 11:24:02;;;;;;;;;;;;;;;24.90;44.04;94725.75;4928301;29;7358;-56
2022/05/10 11:26:39;;;;;;;;;;;;;;;24.93;43.92;94723.97;4942563;29;9258;-56
2022/05/10 11:29:19;;;;;;;;;;;;;;;24.95;43.78;94715.97;4944794;28;6953;-56
2022/05/10 11:32:06;;;;;;;;;;;;;;;24.95;43.75;94716.72;4949503;28;7131;-56
2022/05/10 11:35:26;;;;;;;;;;;;;;;24.98;43.82;94720.47;4951191;28;9067;-56
2022/05/10 11:38:21;;;;;;;;;;;;;;;24.99;43.81;94714.47;4894531;29;9428;-56
2022/05/10 11:41:08;;;;;;;;;;;;;;;25.00;43.76;94701.47;4865658;29;9229;-56
2022/05/10 11:44:08;;;;;;;;;;;;;;;25.03;44.02;94706.00;4860256;29;7430;-56
2022/05/10 11:47:14;;;;;;;;;;;;;;;25.04;43.32;94705.47;4857609;29;9087;-56
2022/05/10 11:50:26;;;;;;;;;;;;;;;25.06;43.53;94699.47;4823929;29;9111;-56
2022/05/10 11:53:11;;;;;;;;;;;;;;;25.05;43.25;94698.75;4806335;29;9157;-57
2022/05/10 11:55:59;;;;;;;;;;;;;;;25.06;43.29;94689.22;4822049;29;7096;-56
2022/05/10 11:58:40;;;;;;;;;;;;;;;25.06;43.96;94699.47;4820222;29;6977;-57
2022/05/10 12:01:40;;;;;;;;;;;;;;;25.07;44.03;94687.97;4805512;29;9529;-57
2022/05/10 12:04:07;;;;;;;;;;;;;;;25.10;43.43;94683.47;4806162;29;7245;-57
2022/05/10 12:06:35;;;;;;;;;;;;;;;25.09;43.71;94682.72;4820410;29;9114;-57
2022/05/10 12:09:06;;;;;;;;;;;;;;;25.11;43.58;94682.22;4821482;29;7229;-57
2022/05/10 12:11:32;;;;;;;;;;;;;;;25.13;43.97;94682.47;4825718;29;8807;-55
2022/05/10 12:22:21;;;;;;;;;;;;;;;25.18;43.36;94679.72;4929318;28;7447;-55
2022/05/10 12:24:52;;;;;;;;;;;;;;;25.17;43.50;94671.94;4926701;28;7014;-56
2022/05/10 12:27:20;;;;;;;;;;;;;;;25.20;43.96;94671.72;4964342;28;9433;-57
2022/05/10 12:29:46;;;;;;;;;;;;;;;25.22;43.28;94660.19;5000668;28;8358;-56
2022/05/10 12:32:21;;;;;;;;;;;;;;;25.24;43.12;94663.19;5025307;28;7339;-57
2022/05/10 12:35:10;;;;;;;;;;;;;;;25.26;43.63;94666.19;5014326;28;7147;-57
2022/05/10 12:37:50;;;;;;;;;;;;;;;25.27;43.61;94660.19;5004674;28;9111;-56
2022/05/10 12:40:46;;;;;;;;;;;;;;;25.27;42.80;94657.41;5028006;28;9790;-57
2022/05/10 12:43:44;;;;;;;;;;;;;;;25.28;42.84;94652.66;5023307;28;9035;-56
2022/05/10 12:46:39;;;;;;;;;;;;;;;25.31;43.35;94654.44;4955715;28;9109;-57
2022/05/10 12:49:28;;;;;;;;;;;;;;;25.34;42.98;94654.16;4942281;28;7071;-56
2022/05/10 12:52:26;;;;;;;;;;;;;;;25.35;43.36;94655.69;4972651;28;6947;-56
2022/05/10 12:55:05;;;;;;;;;;;;;;;25.32;42.65;94650.41;4952687;28;7062;-56
2022/05/10 12:57:41;;;;;;;;;;;;;;;25.32;43.44;94642.91;4940084;28;8625;-56
2022/05/10 13:00:19;;;;;;;;;;;;;;;25.31;43.66;94638.66;4924122;28;8855;-56
2022/05/10 13:03:00;;;;;;;;;;;;;;;25.33;43.49;94630.66;4924985;28;7019;-56
2022/05/10 13:05:40;;;;;;;;;;;;;;;25.40;44.37;94635.63;4952390;28;9423;-57
2022/05/10 13:08:27;;;;;;;;;;;;;;;25.43;43.85;94636.66;4945742;28;7179;-56
2022/05/10 13:10:54;;;;;;;;;;;;;;;25.45;44.21;94631.41;4943447;28;9036;-56
2022/05/10 13:13:32;;;;;;;;;;;;;;;25.49;43.67;94633.91;4948714;28;9448;-55
2022/05/10 13:16:01;;;;;;;;;;;;;;;25.48;44.20;94638.66;4932876;28;7320;-55
2022/05/10 13:18:30;;;;;;;;;;;;;;;25.47;43.76;94634.38;4937329;28;7001;-57
2022/05/10 13:21:02;;;;;;;;;;;;;;;25.49;44.54;94626.38;4925489;28;7016;-57
2022/05/10 13:23:31;;;;;;;;;;;;;;;25.52;43.93;94621.88;5014690;28;7020;-57
2022/05/10 13:26:11;;;;;;;;;;;;;;;25.53;44.12;94626.88;5022500;28;7594;-55
2022/05/10 13:28:56;;;;;;;;;;;;;;;25.52;43.69;94619.13;5021690;28;6895;-57
2022/05/10 13:31:32;;;;;;;;;;;;;;;25.53;43.52;94618.63;5003723;28;7338;-57
2022/05/10 13:34:17;;;;;;;;;;;;;;;25.57;43.91;94616.34;5011607;28;7038;-56
2022/05/10 13:36:52;;;;;;;;;;;;;;;25.59;43.93;94618.59;5010898;28;8875;-56
2022/05/10 13:39:31;;;;;;;;;;;;;;;25.60;43.82;94609.81;5031440;28;9501;-57
2022/05/10 13:42:08;;;;;;;;;;;;;;;25.62;43.99;94607.31;5032668;28;7053;-56
2022/05/10 13:45:06;;;;;;;;;;;;;;;25.63;44.17;94603.31;5031167;28;9062;-56
2022/05/10 13:47:42;;;;;;;;;;;;;;;25.63;43.95;94588.78;4947931;28;7149;-56
2022/05/10 13:50:20;;;;;;;;;;;;;;;25.64;43.98;94588.28;4939724;28;9096;-56
2022/05/10 13:52:56;;;;;;;;;;;;;;;25.68;43.28;94593.53;4958687;28;7469;-56
2022/05/10 13:55:57;;;;;;;;;;;;;;;25.71;43.05;94592.53;4966633;28;8910;-57
2022/05/10 13:58:41;;;;;;;;;;;;;;;25.72;43.44;94578.25;4911640;29;7657;-57
2022/05/10 14:01:09;;;;;;;;;;;;;;;25.76;43.72;94581.47;4888659;29;7478;-55
2022/05/10 14:03:38;;;;;;;;;;;;;;;25.78;43.30;94576.22;4907637;29;9550;-56
2022/05/10 14:06:11;;;;;;;;;;;;;;;25.80;43.04;94573.69;4896262;29;7527;-55
2022/05/10 14:08:44;;;;;;;;;;;;;;;25.81;43.21;94569.69;4888549;29;8756;-56
2022/05/10 14:11:16;;;;;;;;;;;;;;;25.85;43.34;94570.16;4896869;29;7238;-56
2022/05/10 14:13:55;;;;;;;;;;;;;;;25.84;42.66;94560.38;4892092;29;9419;-56